Time;durP1;ratioP1;P1;durP2;ratioP2;P2;SDS_P1;SDS_P2;PMS_P1;PMS_P2;Temp;Humidity;BMP_temperature;BMP_pressure;BME280_temperature;BME280_humidity;BME280_pressure;Samples;Min_cycle;Max_cycle;Signal;HPM_P1;HPM_P2
2023/07/01 00:02:17;;;;;;;0.00;0.00;;;;;;;16.93;97.22;99400.81;5022030;28;20108;-79
2023/07/01 00:04:42;;;;;;;0.00;0.00;;;;;;;16.87;96.56;99389.16;5012215;28;20029;-79
2023/07/01 00:07:08;;;;;;;0.00;0.00;;;;;;;16.91;97.02;99392.88;5032287;28;20079;-79
2023/07/01 00:09:41;;;;;;;0.00;0.00;;;;;;;16.89;96.73;99392.41;5003693;28;20037;-80
2023/07/01 00:12:09;;;;;;;0.00;0.00;;;;;;;17.01;96.35;99404.66;5012033;28;20029;-83
2023/07/01 00:14:52;;;;;;;0.00;0.00;;;;;;;16.93;96.50;99390.56;5010492;28;20025;-83
2023/07/01 00:17:45;;;;;;;0.00;0.00;;;;;;;16.84;95.78;99370.47;5019144;28;20018;-84
2023/07/01 00:20:11;;;;;;;0.00;0.00;;;;;;;16.89;95.81;99384.13;5002069;28;20138;-83
2023/07/01 00:23:05;;;;;;;0.00;0.00;;;;;;;16.89;95.95;99384.13;5027684;28;20018;-84
2023/07/01 00:25:43;;;;;;;0.00;0.00;;;;;;;16.83;95.94;99374.38;5001112;28;20080;-84
2023/07/01 00:28:11;;;;;;;0.00;0.00;;;;;;;16.78;95.36;99360.75;5022103;28;20060;-83
2023/07/01 00:30:36;;;;;;;0.00;0.00;;;;;;;17.09;95.24;99412.09;5012694;28;20148;-83
2023/07/01 00:33:05;;;;;;;0.00;0.00;;;;;;;16.88;94.96;99368.69;4996998;28;20504;-83
2023/07/01 00:35:39;;;;;;;0.00;0.00;;;;;;;17.00;95.23;99383.75;5027956;28;20154;-83
2023/07/01 00:38:27;;;;;;;0.00;0.00;;;;;;;16.88;94.87;99365.94;5010252;28;20028;-84
2023/07/01 00:41:20;;;;;;;;;;;;;;;;;;;;;
2023/07/01 00:43:58;;;;;;;;;;;;;;;;;;;;;
2023/07/01 00:46:24;;;;;;;0.00;0.00;;;;;;;16.87;94.52;99363.47;5032598;28;20054;-82
2023/07/01 00:49:00;;;;;;;;;;;;;;;;;;;;;
2023/07/01 00:51:43;;;;;;;0.00;0.00;;;;;;;16.89;94.74;99367.56;5030613;28;20029;-82
2023/07/01 00:54:09;;;;;;;0.00;0.00;;;;;;;16.81;95.18;99365.63;5014902;28;20032;-82
2023/07/01 00:56:45;;;;;;;0.00;0.00;;;;;;;16.74;95.15;99346.81;5024915;28;20024;-82
2023/07/01 00:59:13;;;;;;;0.00;0.00;;;;;;;16.79;95.48;99364.31;5014123;28;20017;-82
2023/07/01 01:01:43;;;;;;;0.00;0.00;;;;;;;16.94;95.49;99391.41;5043200;28;20076;-81
2023/07/01 01:04:33;;;;;;;0.00;0.00;;;;;;;16.77;95.92;99375.69;5029058;28;20032;-80
2023/07/01 01:07:05;;;;;;;0.00;0.00;;;;;;;16.65;96.62;99367.34;5003752;28;20114;-81
2023/07/01 01:09:48;;;;;;;0.00;0.00;;;;;;;16.61;96.97;99366.38;5011100;28;20030;-82
2023/07/01 01:12:14;;;;;;;0.00;0.00;;;;;;;16.57;97.53;99367.03;5012402;28;21169;-81
2023/07/01 01:14:41;;;;;;;0.00;0.00;;;;;;;16.71;97.17;99377.03;4998607;28;20129;-80
2023/07/01 01:17:12;;;;;;;0.00;0.00;;;;;;;16.61;97.46;99363.63;5051028;28;20102;-80
2023/07/01 01:19:48;;;;;;;0.00;0.00;;;;;;;16.66;97.05;99368.94;5023201;28;20030;-81
2023/07/01 01:23:04;;;;;;;0.00;0.00;;;;;;;16.72;97.46;99384.19;5012844;28;20038;-80
2023/07/01 01:25:37;;;;;;;0.00;0.00;;;;;;;16.64;97.01;99377.56;4947517;28;20413;-80
2023/07/01 01:28:05;;;;;;;0.00;0.00;;;;;;;16.68;97.06;99380.47;5038390;28;20045;-80
2023/07/01 01:30:32;;;;;;;0.00;0.00;;;;;;;16.65;96.21;99372.84;5025619;28;20092;-78
2023/07/01 01:32:58;;;;;;;0.00;0.00;;;;;;;16.66;96.56;99363.41;5007370;28;20026;-79
2023/07/01 01:35:23;;;;;;;0.00;0.00;;;;;;;16.66;96.46;99368.94;4995065;28;20033;-79
2023/07/01 01:38:13;;;;;;;0.00;0.00;;;;;;;16.73;96.76;99385.78;5007242;28;20038;-79
2023/07/01 01:40:58;;;;;;;0.00;0.00;;;;;;;16.63;96.70;99358.56;5015780;28;20442;-79
2023/07/01 01:43:42;;;;;;;0.00;0.00;;;;;;;16.77;96.15;99381.22;5007364;28;20032;-79
2023/07/01 01:46:08;;;;;;;0.00;0.00;;;;;;;16.64;96.51;99366.50;5038500;28;20036;-80
2023/07/01 01:48:36;;;;;;;0.00;0.00;;;;;;;16.54;96.40;99359.44;5010520;28;20120;-78
2023/07/01 01:51:03;;;;;;;0.00;0.00;;;;;;;16.45;97.41;99369.69;5011725;28;20041;-80
2023/07/01 01:53:41;;;;;;;0.00;0.00;;;;;;;16.32;98.27;99373.47;5000604;28;20071;-79
2023/07/01 01:56:07;;;;;;;0.00;0.00;;;;;;;16.27;99.25;99379.19;5014236;28;20484;-79
2023/07/01 01:58:33;;;;;;;0.00;0.00;;;;;;;16.18;99.75;99368.97;5022465;28;20080;-79
2023/07/01 02:01:01;;;;;;;0.00;0.00;;;;;;;16.22;100.00;99364.44;5005050;28;20026;-77
2023/07/01 02:03:27;;;;;;;0.00;0.00;;;;;;;16.32;99.80;99387.25;5041748;28;20087;-78
2023/07/01 02:05:52;;;;;;;0.00;0.00;;;;;;;16.25;99.94;99373.16;4996023;28;20468;-79
2023/07/01 02:08:20;;;;;;;0.00;0.00;;;;;;;16.10;100.00;99355.22;5006469;28;21321;-78
2023/07/01 02:10:46;;;;;;;0.00;0.00;;;;;;;16.21;100.00;99365.56;5030405;28;20037;-79
2023/07/01 02:13:11;;;;;;;0.00;0.00;;;;;;;16.23;100.00;99366.03;5009834;28;20036;-79
2023/07/01 02:15:37;;;;;;;0.00;0.00;;;;;;;16.18;100.00;99360.72;5034370;28;20041;-79
2023/07/01 02:18:03;;;;;;;0.00;0.00;;;;;;;16.21;100.00;99362.81;5034121;28;20520;-78
2023/07/01 02:20:30;;;;;;;0.00;0.00;;;;;;;16.15;100.00;99361.38;5032569;28;20053;-78
2023/07/01 02:23:00;;;;;;;0.00;0.00;;;;;;;16.27;99.89;99374.47;5018386;28;20048;-78
2023/07/01 02:25:26;;;;;;;0.00;0.00;;;;;;;16.34;99.77;99384.97;5008146;28;20032;-79
2023/07/01 02:27:51;;;;;;;0.00;0.00;;;;;;;16.23;99.78;99374.31;5005478;28;20029;-80
2023/07/01 02:30:17;;;;;;;0.00;0.00;;;;;;;16.33;99.68;99377.84;5015278;28;20784;-80
2023/07/01 02:32:42;;;;;;;0.00;0.00;;;;;;;16.30;99.43;99378.53;5020453;28;20048;-80
2023/07/01 02:35:11;;;;;;;0.00;0.00;;;;;;;16.36;99.11;99388.22;5019627;28;20061;-80
2023/07/01 02:37:36;;;;;;;0.00;0.00;;;;;;;16.28;98.71;99369.75;5000421;28;20486;-80
2023/07/01 02:40:04;;;;;;;0.00;0.00;;;;;;;16.32;98.75;99376.22;4987465;28;20034;-79
2023/07/01 02:42:30;;;;;;;0.00;0.00;;;;;;;16.40;97.97;99386.44;5021171;28;20032;-80
2023/07/01 02:44:57;;;;;;;0.00;0.00;;;;;;;16.33;97.82;99377.84;5021454;28;20407;-80
2023/07/01 02:47:23;;;;;;;0.00;0.00;;;;;;;16.26;97.70;99372.84;5028309;28;20029;-81
2023/07/01 02:49:49;;;;;;;0.00;0.00;;;;;;;16.23;97.63;99379.03;5005802;28;20434;-81
2023/07/01 02:52:24;;;;;;;0.00;0.00;;;;;;;16.21;97.16;99376.59;5015906;28;20052;-80
2023/07/01 02:54:49;;;;;;;0.00;0.00;;;;;;;16.21;97.65;99382.09;5011284;28;20033;-86
2023/07/01 02:57:15;;;;;;;0.00;0.00;;;;;;;16.13;97.54;99369.16;5003530;28;20034;-85
2023/07/01 02:59:44;;;;;;;0.00;0.00;;;;;;;16.16;96.85;99367.69;5008072;28;20017;-82
2023/07/01 03:02:10;;;;;;;0.00;0.00;;;;;;;16.14;97.02;99365.25;5011061;28;20048;-82
2023/07/01 03:04:35;;;;;;;0.00;0.00;;;;;;;16.22;96.08;99386.50;5009991;28;20116;-80
2023/07/01 03:07:01;;;;;;;0.00;0.00;;;;;;;16.19;95.34;99378.88;5027978;28;20121;-81
2023/07/01 03:09:32;;;;;;;0.00;0.00;;;;;;;16.18;95.21;99388.28;4995274;28;20030;-83
2023/07/01 03:11:58;;;;;;;0.00;0.00;;;;;;;16.15;94.88;99386.19;5004800;28;20033;-83
2023/07/01 03:14:23;;;;;;;0.00;0.00;;;;;;;16.09;94.13;99373.72;4996615;28;20033;-81
2023/07/01 03:16:52;;;;;;;0.00;0.00;;;;;;;16.03;92.97;99369.50;5018806;28;20038;-83
2023/07/01 03:19:22;;;;;;;0.00;0.00;;;;;;;16.13;92.85;99388.44;5024055;28;20030;-83
2023/07/01 03:21:48;;;;;;;0.00;0.00;;;;;;;16.18;92.65;99393.81;5012759;28;20033;-80
2023/07/01 03:24:19;;;;;;;0.00;0.00;;;;;;;16.06;92.55;99374.34;5027183;28;20494;-82
2023/07/01 03:26:49;;;;;;;0.00;0.00;;;;;;;15.96;92.67;99372.78;5025878;28;20075;-81
2023/07/01 03:29:15;;;;;;;0.00;0.00;;;;;;;16.04;92.49;99376.63;5021890;28;20040;-82
2023/07/01 03:31:56;;;;;;;;;;;;;;;;;;;;;
2023/07/01 03:34:22;;;;;;;0.00;0.00;;;;;;;16.03;91.95;99380.53;5002780;28;20039;-82
2023/07/01 03:36:48;;;;;;;0.00;0.00;;;;;;;16.10;91.37;99389.09;5053521;28;20029;-81
2023/07/01 03:39:13;;;;;;;0.00;0.00;;;;;;;15.91;91.51;99364.66;5035231;28;20551;-81
2023/07/01 03:41:41;;;;;;;0.00;0.00;;;;;;;16.03;91.79;99386.03;5024545;28;20024;-84
2023/07/01 03:44:26;;;;;;;0.00;0.00;;;;;;;15.93;91.60;99376.19;5003396;28;20029;-85
2023/07/01 03:47:06;;;;;;;0.00;0.00;;;;;;;15.86;91.46;99373.13;5026283;28;20044;-85
2023/07/01 03:49:32;;;;;;;0.00;0.00;;;;;;;15.81;91.80;99356.75;4998334;28;20036;-78
2023/07/01 03:52:07;;;;;;;;;;;;;;;;;;;;;
2023/07/01 03:54:43;;;;;;;0.00;0.00;;;;;;;15.94;91.64;99382.50;5017297;28;20423;-81
2023/07/01 03:57:16;;;;;;;0.00;0.00;;;;;;;15.92;91.35;99377.31;5041595;28;20018;-81
2023/07/01 03:59:49;;;;;;;0.00;0.00;;;;;;;15.65;91.34;99326.91;5020355;28;20017;-83
2023/07/01 04:02:14;;;;;;;0.00;0.00;;;;;;;15.86;91.11;99370.38;5007712;28;20038;-83
2023/07/01 04:04:40;;;;;;;0.00;0.00;;;;;;;15.90;91.13;99379.56;5014853;28;20036;-82
2023/07/01 04:07:38;;;;;;;;;;;;;;;;;;;;;
2023/07/01 04:10:22;;;;;;;0.00;0.00;;;;;;;15.78;90.59;99349.94;5012658;28;20048;-81
2023/07/01 04:12:53;;;;;;;0.00;0.00;;;;;;;15.64;90.54;99328.06;5011782;28;20041;-83
2023/07/01 04:15:30;;;;;;;0.00;0.00;;;;;;;15.64;91.08;99341.03;5023208;28;20175;-82
2023/07/01 04:18:03;;;;;;;0.00;0.00;;;;;;;15.81;90.75;99374.09;5008113;28;20026;-79
2023/07/01 04:20:28;;;;;;;0.00;0.00;;;;;;;15.82;90.90;99386.72;5025899;28;20171;-81
2023/07/01 04:22:54;;;;;;;0.00;0.00;;;;;;;15.79;90.41;99387.38;5002868;28;20732;-82
2023/07/01 04:25:19;;;;;;;0.00;0.00;;;;;;;15.82;90.57;99392.25;5045589;28;20029;-81
2023/07/01 04:27:56;;;;;;;0.00;0.00;;;;;;;15.83;90.49;99404.09;4999347;28;20055;-81
2023/07/01 04:30:21;;;;;;;0.00;0.00;;;;;;;15.76;90.48;99382.50;5012782;28;20040;-80
2023/07/01 04:32:54;;;;;;;0.00;0.00;;;;;;;15.83;90.70;99395.81;5032875;28;20029;-82
2023/07/01 04:35:19;;;;;;;0.00;0.00;;;;;;;15.78;90.65;99384.94;5038472;28;20086;-83
2023/07/01 04:37:55;;;;;;;;;;;;;;;;;;;;;
2023/07/01 04:40:24;;;;;;;0.00;0.00;;;;;;;15.69;90.44;99371.16;5038959;28;20474;-83
2023/07/01 04:42:50;;;;;;;0.00;0.00;;;;;;;15.91;90.26;99399.69;5028469;28;20032;-80
2023/07/01 04:45:21;;;;;;;0.00;0.00;;;;;;;15.81;90.12;99390.66;5029811;28;20029;-81
2023/07/01 04:47:55;;;;;;;0.00;0.00;;;;;;;15.99;89.78;99415.41;5009732;28;20483;-81
2023/07/01 04:50:20;;;;;;;0.00;0.00;;;;;;;15.94;90.18;99399.03;5045625;28;20494;-82
2023/07/01 04:52:48;;;;;;;0.00;0.00;;;;;;;15.88;89.99;99390.94;4993785;28;20029;-84
2023/07/01 04:55:14;;;;;;;0.00;0.00;;;;;;;15.99;89.48;99399.69;5013507;28;20068;-83
2023/07/01 04:57:39;;;;;;;0.00;0.00;;;;;;;15.93;89.13;99389.16;5020666;28;20022;-85
2023/07/01 05:00:10;;;;;;;0.00;0.00;;;;;;;15.96;89.18;99407.78;5025929;28;20024;-84
2023/07/01 05:02:41;;;;;;;0.00;0.00;;;;;;;16.10;88.93;99413.94;5006974;28;20056;-83
2023/07/01 05:05:07;;;;;;;0.00;0.00;;;;;;;16.00;88.38;99398.56;5013894;28;20033;-84
2023/07/01 05:07:32;;;;;;;0.00;0.00;;;;;;;16.11;87.85;99418.31;5048701;28;20033;-84
2023/07/01 05:10:05;;;;;;;0.00;0.00;;;;;;;15.96;87.43;99391.25;5011196;28;20034;-83
2023/07/01 05:12:30;;;;;;;0.00;0.00;;;;;;;16.00;87.44;99392.22;5015712;28;20133;-84
2023/07/01 05:15:07;;;;;;;0.00;0.00;;;;;;;16.16;87.02;99401.56;5021957;28;20523;-82
2023/07/01 05:17:34;;;;;;;0.00;0.00;;;;;;;16.17;86.33;99400.44;5036819;28;20035;-82
2023/07/01 05:20:12;;;;;;;0.00;0.00;;;;;;;16.14;86.00;99389.28;5005221;28;20646;-81
2023/07/01 05:22:42;;;;;;;0.00;0.00;;;;;;;16.27;86.21;99406.78;5026475;28;20021;-80
2023/07/01 05:25:16;;;;;;;0.00;0.00;;;;;;;16.36;85.55;99416.63;5006123;28;20022;-79
2023/07/01 05:27:41;;;;;;;0.00;0.00;;;;;;;16.40;85.59;99420.34;5027433;28;20431;-77
2023/07/01 05:30:07;;;;;;;0.00;0.00;;;;;;;16.51;85.67;99440.09;5027606;28;20034;-79
2023/07/01 05:32:32;;;;;;;0.00;0.00;;;;;;;16.52;85.74;99430.69;5001589;28;20034;-80
2023/07/01 05:34:58;;;;;;;0.00;0.00;;;;;;;16.54;84.79;99433.13;5027604;28;20087;-82
2023/07/01 05:37:23;;;;;;;0.00;0.00;;;;;;;16.72;85.03;99444.91;5011320;28;20037;-80
2023/07/01 05:39:51;;;;;;;0.00;0.00;;;;;;;16.72;83.89;99428.34;5028658;28;20029;-80
2023/07/01 05:42:24;;;;;;;0.00;0.00;;;;;;;16.80;83.84;99433.00;5025311;28;20013;-79
2023/07/01 05:44:49;;;;;;;0.00;0.00;;;;;;;16.80;82.90;99430.25;5012102;28;20028;-81
2023/07/01 05:47:17;;;;;;;0.00;0.00;;;;;;;16.71;82.80;99421.22;5009554;28;20037;-80
2023/07/01 05:49:42;;;;;;;0.00;0.00;;;;;;;16.98;82.69;99441.25;5042077;28;20076;-79
2023/07/01 05:52:10;;;;;;;0.00;0.00;;;;;;;16.92;82.36;99421.28;5029889;28;20422;-80
2023/07/01 05:54:38;;;;;;;0.00;0.00;;;;;;;17.08;81.30;99435.34;5022273;28;20032;-79
2023/07/01 05:57:04;;;;;;;0.00;0.00;;;;;;;17.08;80.74;99424.28;5003926;28;20038;-78
2023/07/01 05:59:29;;;;;;;0.00;0.00;;;;;;;17.09;80.99;99432.22;5003815;28;20067;-78
2023/07/01 06:02:00;;;;;;;0.00;0.00;;;;;;;17.25;80.22;99437.19;5027288;28;20052;-79
2023/07/01 06:04:25;;;;;;;0.00;0.00;;;;;;;17.27;79.83;99437.66;5008142;28;20030;-78
2023/07/01 06:06:50;;;;;;;0.00;0.00;;;;;;;17.22;79.78;99430.38;5009184;28;20033;-79
2023/07/01 06:09:18;;;;;;;0.00;0.00;;;;;;;17.15;80.08;99429.28;5033151;28;20036;-77
2023/07/01 06:11:49;;;;;;;0.00;0.00;;;;;;;17.16;79.53;99431.72;5009233;28;20064;-76
2023/07/01 06:14:16;;;;;;;0.00;0.00;;;;;;;17.16;79.92;99425.41;5014241;28;20175;-79
2023/07/01 06:16:42;;;;;;;0.00;0.00;;;;;;;17.18;79.59;99418.38;5004511;28;20026;-79
2023/07/01 06:19:10;;;;;;;0.00;0.00;;;;;;;17.54;79.47;99458.44;5013022;28;20456;-77
2023/07/01 06:21:37;;;;;;;0.00;0.00;;;;;;;17.55;79.08;99443.50;5021433;28;20032;-77
2023/07/01 06:24:03;;;;;;;0.00;0.00;;;;;;;17.75;77.88;99447.38;5021194;28;20120;-78
2023/07/01 06:26:40;;;;;;;0.00;0.00;;;;;;;17.83;77.27;99450.41;5011028;28;20044;-78
2023/07/01 06:29:06;;;;;;;0.00;0.00;;;;;;;18.00;76.28;99463.31;4987830;28;20471;-79
2023/07/01 06:31:39;;;;;;;0.00;0.00;;;;;;;18.02;76.17;99449.94;4995114;28;20033;-78
2023/07/01 06:34:15;;;;;;;0.00;0.00;;;;;;;18.12;74.87;99449.50;5002654;28;20028;-78
2023/07/01 06:39:29;;;;;;;0.00;0.00;;;;;;;18.27;73.25;99446.09;5026863;28;20483;-77
2023/07/01 06:42:03;;;;;;;0.00;0.00;;;;;;;18.48;72.83;99461.84;5017455;28;20021;-77
2023/07/01 06:44:28;;;;;;;;;;;;;;;18.99;72.27;99481.78;5023699;28;20052;-77
2023/07/01 06:46:56;;;;;;;0.00;0.00;;;;;;;19.14;70.33;99457.31;5025135;28;20358;-78
2023/07/01 06:49:26;;;;;;;0.00;0.00;;;;;;;19.51;68.99;99471.13;5003930;28;20048;-78
2023/07/01 06:52:09;;;;;;;;;;;;;;;;;;;;;
2023/07/01 06:54:43;;;;;;;0.00;0.00;;;;;;;20.18;66.23;99460.41;5023463;28;20022;-77
2023/07/01 06:57:18;;;;;;;;;;;;;;;;;;;;;
2023/07/01 07:00:01;;;;;;;;;;;;;;;;;;;;;
2023/07/01 07:02:27;;;;;;;0.00;0.00;;;;;;;20.52;64.49;99472.03;5020094;28;20030;-77
2023/07/01 07:05:20;;;;;;;;;;;;;;;;;;;;;
2023/07/01 07:07:49;;;;;;;0.00;0.00;;;;;;;20.60;62.90;99477.78;5009315;28;20033;-78
2023/07/01 07:10:20;;;;;;;0.00;0.00;;;;;;;20.61;62.67;99493.28;4998776;28;20084;-77
2023/07/01 07:12:48;;;;;;;0.00;0.00;;;;;;;20.50;62.67;99470.75;5005339;28;20116;-78
2023/07/01 07:15:14;;;;;;;0.00;0.00;;;;;;;20.49;61.68;99494.97;5007734;28;20036;-81
2023/07/01 07:17:49;;;;;;;;;;;;;;;;;;;;;
2023/07/01 07:20:47;;;;;;;;;;;;;;;;;;;;;
2023/07/01 07:23:58;;;;;;;;;;;;;;;;;;;;;
2023/07/01 07:26:42;;;;;;;0.00;0.00;;;;;;;19.78;64.31;99482.63;5017348;28;20043;-79
2023/07/01 07:29:47;;;;;;;;;;;;;;;;;;;;;
2023/07/01 07:32:44;;;;;;;0.00;0.00;;;;;;;19.82;62.68;99483.56;5023674;28;20033;-77
2023/07/01 07:35:20;;;;;;;0.00;0.00;;;;;;;19.80;62.66;99516.38;5019897;28;20145;-79
2023/07/01 07:37:49;;;;;;;0.00;0.00;;;;;;;19.73;63.23;99502.25;5012374;28;20032;-78
2023/07/01 07:40:18;;;;;;;0.00;0.00;;;;;;;19.93;63.56;99493.03;5005663;28;20022;-78
2023/07/01 07:42:44;;;;;;;0.00;0.00;;;;;;;20.10;62.56;99510.53;4999537;28;20029;-78
2023/07/01 07:45:27;;;;;;;;;;;;;;;;;;;;;
2023/07/01 07:48:29;;;;;;;;;;;;;;;;;;;;;
2023/07/01 07:51:23;;;;;;;;;;;;;;;;;;;;;
2023/07/01 07:53:54;;;;;;;0.00;0.00;;;;;;;20.34;61.49;99524.31;5020516;28;20029;-77
2023/07/01 07:56:40;;;;;;;0.00;0.00;;;;;;;20.61;60.49;99524.63;5011168;28;20068;-77
2023/07/01 07:59:25;;;;;;;;;;;;;;;;;;;;;
2023/07/01 08:02:16;;;;;;;0.00;0.00;;;;;;;20.87;59.06;99504.69;5000254;28;20021;-78
2023/07/01 08:04:47;;;;;;;0.00;0.00;;;;;;;21.08;58.47;99504.44;4998770;28;20080;-76
2023/07/01 08:07:13;;;;;;;0.00;0.00;;;;;;;21.35;57.94;99513.03;5020163;28;20025;-77
2023/07/01 08:09:49;;;;;;;;;;;;;;;;;;;;;
2023/07/01 08:13:23;;;;;;;0.00;0.00;;;;;;;21.53;55.60;99496.78;5007903;28;20379;-76
2023/07/01 08:16:14;;;;;;;;;;;;;;;;;;;;;
2023/07/01 08:19:02;;;;;;;0.00;0.00;;;;;;;22.34;54.13;99516.78;5021925;28;20022;-74
2023/07/01 08:21:49;;;;;;;0.00;0.00;;;;;;;22.39;53.21;99522.84;5000075;28;20036;-77
2023/07/01 08:24:15;;;;;;;0.00;0.00;;;;;;;22.10;53.66;99513.09;5010088;28;20030;-78
2023/07/01 08:26:44;;;;;;;0.00;0.00;;;;;;;22.10;54.30;99529.78;5025268;28;20087;-76
2023/07/01 08:29:15;;;;;;;0.00;0.00;;;;;;;22.29;53.43;99521.44;5008449;28;20101;-77
2023/07/01 08:31:41;;;;;;;0.00;0.00;;;;;;;22.44;52.68;99528.13;5025648;28;20033;-79
2023/07/01 08:34:09;;;;;;;0.00;0.00;;;;;;;22.39;52.17;99534.00;5007736;28;20025;-79
2023/07/01 08:36:35;;;;;;;0.00;0.00;;;;;;;22.05;52.47;99533.69;5015429;28;20029;-79
2023/07/01 08:39:02;;;;;;;0.00;0.00;;;;;;;21.76;53.01;99523.91;5041115;28;20024;-77
2023/07/01 08:41:33;;;;;;;0.00;0.00;;;;;;;21.43;52.43;99542.59;5045418;28;20043;-78
2023/07/01 08:43:59;;;;;;;0.00;0.00;;;;;;;21.00;54.40;99529.63;5010361;28;20124;-77
2023/07/01 08:46:25;;;;;;;0.00;0.00;;;;;;;20.66;54.96;99549.41;5010865;28;20487;-77
2023/07/01 08:48:54;;;;;;;0.00;0.00;;;;;;;20.33;56.61;99538.53;5008226;28;20032;-79
2023/07/01 08:51:37;;;;;;;0.00;0.00;;;;;;;20.16;57.81;99540.44;5023548;28;20026;-77
2023/07/01 08:54:04;;;;;;;0.00;0.00;;;;;;;19.94;59.19;99552.88;5029970;28;20041;-75
2023/07/01 08:56:30;;;;;;;0.00;0.00;;;;;;;20.03;59.69;99573.00;5007860;28;20025;-76
2023/07/01 08:58:56;;;;;;;0.00;0.00;;;;;;;20.13;59.50;99568.09;5015165;28;20075;-77
2023/07/01 09:01:21;;;;;;;0.00;0.00;;;;;;;20.13;59.75;99576.44;5014792;28;20018;-75
2023/07/01 09:03:51;;;;;;;0.00;0.00;;;;;;;19.87;60.48;99558.22;5038746;28;20043;-78
2023/07/01 09:06:16;;;;;;;0.00;0.00;;;;;;;19.57;61.22;99546.56;5028135;28;20147;-78
2023/07/01 09:08:42;;;;;;;0.00;0.00;;;;;;;19.30;62.12;99546.94;4995246;28;20391;-77
2023/07/01 09:11:37;;;;;;;;;;;;;;;;;;;;;
2023/07/01 09:14:10;;;;;;;0.00;0.00;;;;;;;18.97;63.56;99556.13;5027446;28;20022;-76
2023/07/01 09:16:47;;;;;;;;;;;;;;;;;;;;;
2023/07/01 09:20:05;;;;;;;0.00;0.00;;;;;;;19.23;63.73;99554.19;5029892;28;20017;-75
2023/07/01 09:22:41;;;;;;;0.00;0.00;;;;;;;19.75;62.66;99574.84;5020046;28;20044;-75
2023/07/01 09:25:29;;;;;;;0.00;0.00;;;;;;;20.24;60.35;99577.56;5026948;28;20032;-75
2023/07/01 09:28:05;;;;;;;0.00;0.00;;;;;;;20.61;59.34;99541.28;5019562;28;20041;-77
2023/07/01 09:30:36;;;;;;;0.00;0.00;;;;;;;21.43;57.60;99558.47;5027621;28;20075;-77
2023/07/01 09:33:28;;;;;;;0.00;0.00;;;;;;;22.54;54.44;99531.50;5027643;28;20040;-76
2023/07/01 09:39:48;;;;;;;;;;;;;;;;;;;;;
2023/07/01 09:49:44;;;;;;;0.00;0.00;;;;;;;22.83;48.88;99555.91;4886020;29;20099;-83
2023/07/01 09:53:03;;;;;;;;;;;;;;;;;;;;;
2023/07/01 10:03:02;;;;;;;;;;;;;;;;;;;;;
2023/07/01 10:06:24;;;;;;;0.00;0.00;;;;;;;20.74;51.45;99537.31;4942482;28;20039;-80
2023/07/01 10:12:17;;;;;;;;;;;;;;;;;;;;;
2023/07/01 10:15:31;;;;;;;0.00;0.00;;;;;;;20.21;55.72;99561.63;4918741;29;20035;-81
2023/07/01 10:28:59;;;;;;;0.00;0.00;;;;;;;20.05;56.02;99565.09;4858246;29;20045;-83
2023/07/01 10:42:29;;;;;;;;;;;;;;;;;;;;;
2023/07/01 10:45:34;;;;;;;;;;;;;;;;;;;;;
2023/07/01 10:48:22;;;;;;;;;;;;;;;;;;;;;
2023/07/01 10:51:11;;;;;;;0.00;0.00;;;;;;;23.58;47.84;99575.09;5010285;28;20040;-81
2023/07/01 10:54:32;;;;;;;0.00;0.00;;;;;;;26.17;42.90;99579.84;5007778;28;20041;-83
2023/07/01 10:57:28;;;;;;;;;;;;;;;;;;;;;
2023/07/01 11:00:52;;;;;;;0.00;0.00;;;;;;;27.36;37.83;99563.34;4980115;28;20040;-79
2023/07/01 11:03:42;;;;;;;0.00;0.00;;;;;;;26.21;41.03;99586.28;4932524;28;20042;-78
2023/07/01 11:06:59;;;;;;;0.00;0.00;;;;;;;25.09;42.97;99563.06;4958849;28;20121;-77
2023/07/01 11:09:40;;;;;;;0.00;0.00;;;;;;;25.05;43.25;99589.38;5034661;28;20033;-78
2023/07/01 11:12:35;;;;;;;;;;;;;;;;;;;;;
2023/07/01 11:22:25;;;;;;;0.00;0.00;;;;;;;22.70;49.08;99607.41;4993224;28;20507;-79
2023/07/01 11:36:51;;;;;;;0.00;0.00;;;;;;;21.91;49.89;99589.03;4924137;28;20143;-82
2023/07/01 11:40:49;;;;;;;;;;;;;;;;;;;;;
2023/07/01 11:43:22;;;;;;;;;;;;;;;;;;;;;
2023/07/01 11:45:58;;;;;;;0.00;0.00;;;;;;;22.47;47.15;99583.09;4886270;29;21104;-83
2023/07/01 11:49:30;;;;;;;0.00;0.00;;;;;;;23.05;45.63;99575.81;4887992;29;20526;-83
2023/07/01 11:52:55;;;;;;;;;;;;;;;;;;;;;
2023/07/01 11:56:01;;;;;;;0.00;0.00;;;;;;;23.41;46.07;99589.56;4965818;28;20042;-82
2023/07/01 12:06:32;;;;;;;;;;;;;;;;;;;;;
2023/07/01 12:12:48;;;;;;;0.00;0.00;;;;;;;24.77;41.54;99632.63;4856522;28;20160;-80
2023/07/01 12:15:25;;;;;;;0.00;0.00;;;;;;;24.23;42.40;99578.84;4955066;28;20108;-79
2023/07/01 12:18:44;;;;;;;0.00;0.00;;;;;;;25.09;42.73;99613.41;4949452;28;20418;-80
2023/07/01 12:21:35;;;;;;;0.00;0.00;;;;;;;26.79;39.18;99586.50;4955984;28;20038;-78
2023/07/01 12:24:11;;;;;;;;;;;;;;;;;;;;;
2023/07/01 12:26:39;;;;;;;0.00;0.00;;;;;;;26.03;38.79;99596.59;5001647;28;20030;-80
2023/07/01 12:29:16;;;;;;;0.00;0.00;;;;;;;25.40;38.87;99607.72;5004808;28;20549;-80
2023/07/01 12:31:53;;;;;;;0.00;0.00;;;;;;;24.72;40.77;99577.06;5010755;28;20076;-80
2023/07/01 12:34:36;;;;;;;0.00;0.00;;;;;;;24.70;41.35;99608.19;5006886;28;20026;-80
2023/07/01 12:37:10;;;;;;;0.00;0.00;;;;;;;24.81;41.48;99618.69;5014318;28;20037;-79
2023/07/01 12:39:44;;;;;;;0.00;0.00;;;;;;;25.58;39.97;99617.06;4993132;28;20025;-79
2023/07/01 12:42:24;;;;;;;0.00;0.00;;;;;;;25.07;40.85;99620.56;5015999;28;20037;-78
2023/07/01 12:55:14;;;;;;;0.00;0.00;;;;;;;26.17;37.15;99607.88;5002981;28;20065;-79
2023/07/01 12:57:39;;;;;;;0.00;0.00;;;;;;;25.42;39.27;99619.31;5004346;28;20036;-79
2023/07/01 13:00:06;;;;;;;0.00;0.00;;;;;;;28.64;34.56;99602.00;5040713;28;20025;-79
2023/07/01 13:02:32;;;;;;;0.00;0.00;;;;;;;30.62;30.32;99608.72;5007051;28;20061;-78
2023/07/01 13:05:06;;;;;;;0.00;0.00;;;;;;;31.76;28.67;99602.59;5033873;28;20077;-79
2023/07/01 13:07:32;;;;;;;0.00;0.00;;;;;;;29.80;30.69;99610.44;5005556;28;20030;-79
2023/07/01 13:10:07;;;;;;;0.00;0.00;;;;;;;31.01;29.61;99607.41;5004760;28;20444;-79
2023/07/01 13:12:35;;;;;;;0.00;0.00;;;;;;;29.06;31.28;99597.34;5009790;28;20033;-80
2023/07/01 13:15:17;;;;;;;0.00;0.00;;;;;;;29.29;31.35;99599.59;5001089;28;20455;-79
2023/07/01 13:17:43;;;;;;;0.00;0.00;;;;;;;32.85;27.07;99592.75;5018125;28;20037;-83
2023/07/01 13:20:09;;;;;;;0.00;0.00;;;;;;;34.78;24.29;99608.78;5005275;28;20017;-80
2023/07/01 13:22:46;;;;;;;0.00;0.00;;;;;;;36.37;22.98;99619.75;5008671;28;20032;-81
2023/07/01 13:25:18;;;;;;;0.00;0.00;;;;;;;36.77;21.78;99579.19;5010926;28;20469;-81
2023/07/01 13:27:49;;;;;;;0.00;0.00;;;;;;;35.06;22.71;99571.38;5022660;28;20033;-80
2023/07/01 13:30:47;;;;;;;0.00;0.00;;;;;;;34.16;24.95;99600.41;5014841;28;20098;-80
2023/07/01 13:33:24;;;;;;;0.00;0.00;;;;;;;35.62;22.31;99587.00;4991048;28;20473;-82
2023/07/01 13:35:53;;;;;;;0.00;0.00;;;;;;;36.25;21.32;99596.56;5016340;28;20030;-80
2023/07/01 13:38:18;;;;;;;0.00;0.00;;;;;;;36.40;21.30;99590.34;5022640;28;20022;-78
2023/07/01 13:41:04;;;;;;;0.00;0.00;;;;;;;36.94;21.76;99589.06;5018374;28;20832;-78
2023/07/01 13:43:32;;;;;;;0.00;0.00;;;;;;;36.15;21.40;99580.66;5004159;28;20553;-80
2023/07/01 13:46:09;;;;;;;;;;;;;;;;;;;;;
2023/07/01 13:48:48;;;;;;;;;;;;;;;;;;;;;
2023/07/01 13:51:31;;;;;;;;;;;;;;;;;;;;;
2023/07/01 13:53:57;;;;;;;0.00;0.00;;;;;;;34.26;22.92;99561.63;5005452;28;20036;-80
2023/07/01 13:56:25;;;;;;;0.00;0.00;;;;;;;33.02;24.27;99585.09;5007824;28;20121;-79
2023/07/01 13:58:50;;;;;;;0.00;0.00;;;;;;;32.58;24.75;99556.13;5004888;28;20067;-79
2023/07/01 14:01:18;;;;;;;0.00;0.00;;;;;;;34.28;22.65;99572.56;5005278;28;20026;-78
2023/07/01 14:03:59;;;;;;;0.00;0.00;;;;;;;35.01;22.22;99575.59;5002001;28;20037;-79
2023/07/01 14:06:25;;;;;;;0.00;0.00;;;;;;;35.25;22.15;99604.44;5012648;28;20353;-79
2023/07/01 14:08:51;;;;;;;0.00;0.00;;;;;;;36.12;21.17;99558.84;5004204;28;20026;-79
2023/07/01 14:11:19;;;;;;;0.00;0.00;;;;;;;36.15;21.58;99564.38;5002314;28;20782;-80
2023/07/01 14:13:52;;;;;;;0.00;0.00;;;;;;;37.08;20.08;99593.41;4996225;28;20030;-79
2023/07/01 14:16:19;;;;;;;0.00;0.00;;;;;;;37.12;20.33;99579.00;5005540;28;20025;-78
2023/07/01 14:18:45;;;;;;;0.00;0.00;;;;;;;37.17;19.79;99564.13;5013306;28;20436;-79
2023/07/01 14:21:16;;;;;;;0.00;0.00;;;;;;;36.56;20.47;99595.81;5023727;28;20117;-79
2023/07/01 14:23:45;;;;;;;0.00;0.00;;;;;;;36.54;20.37;99584.13;5000739;28;20392;-81
2023/07/01 14:26:40;;;;;;;0.00;0.00;;;;;;;34.48;22.09;99612.91;5105253;23;20072;-77
2023/07/01 14:29:08;;;;;;;0.00;0.00;;;;;;;34.48;22.23;99561.00;5026896;28;20797;-75
2023/07/01 14:31:34;;;;;;;0.00;0.00;;;;;;;35.73;20.64;99572.41;5029243;28;20048;-79